Time;durP1;ratioP1;P1;durP2;ratioP2;P2;SDS_P1;SDS_P2;PMS_P1;PMS_P2;Temp;Humidity;BMP_temperature;BMP_pressure;BME280_temperature;BME280_humidity;BME280_pressure;Samples;Min_cycle;Max_cycle;Signal;HPM_P1;HPM_P2
2021/11/21 00:01:41;;;;;;;46.15;30.75;;;8.50;99.90;;;;;;5035262;28;20397;-64
2021/11/21 00:04:06;;;;;;;44.03;28.13;;;8.50;99.90;;;;;;5035944;28;20109;-65
2021/11/21 00:06:32;;;;;;;43.58;30.08;;;8.50;99.90;;;;;;5033607;28;20072;-64
2021/11/21 00:08:58;;;;;;;46.30;29.73;;;8.50;99.90;;;;;;5034581;28;20481;-63
2021/11/21 00:11:23;;;;;;;42.83;28.90;;;8.50;99.90;;;;;;5045517;28;20075;-64
2021/11/21 00:13:50;;;;;;;42.47;29.48;;;8.50;99.90;;;;;;5058397;28;20058;-66
2021/11/21 00:16:17;;;;;;;47.05;30.25;;;8.50;99.90;;;;;;5055980;28;20078;-61
2021/11/21 00:18:42;;;;;;;43.15;29.27;;;8.60;99.90;;;;;;5059417;28;20032;-66
2021/11/21 00:21:08;;;;;;;46.72;30.98;;;8.40;99.90;;;;;;5072812;28;20033;-64
2021/11/21 00:23:34;;;;;;;42.47;30.13;;;8.40;99.90;;;;;;5055598;28;20498;-62
2021/11/21 00:26:00;;;;;;;47.10;29.45;;;8.40;99.90;;;;;;5057336;28;20047;-65
2021/11/21 00:28:26;;;;;;;46.95;31.63;;;8.40;99.90;;;;;;5055201;28;20079;-65
2021/11/21 00:30:51;;;;;;;45.28;30.30;;;8.40;99.90;;;;;;5055060;28;20067;-65
2021/11/21 00:33:18;;;;;;;46.08;30.75;;;8.50;99.90;;;;;;5057574;28;20029;-68
2021/11/21 00:35:44;;;;;;;47.03;31.45;;;8.50;99.90;;;;;;5051508;28;20064;-64
2021/11/21 00:38:10;;;;;;;41.25;28.70;;;8.60;99.90;;;;;;5044923;28;20024;-64
2021/11/21 00:40:35;;;;;;;46.75;29.98;;;8.80;99.90;;;;;;5043762;28;20397;-64
2021/11/21 00:43:01;;;;;;;48.45;30.63;;;8.80;99.90;;;;;;5042443;28;20037;-65
2021/11/21 00:45:28;;;;;;;41.85;29.05;;;8.80;99.90;;;;;;5042142;28;20029;-65
2021/11/21 00:47:54;;;;;;;48.05;31.35;;;8.90;99.90;;;;;;5049855;28;20531;-63
2021/11/21 00:50:25;;;;;;;41.20;29.50;;;8.80;99.90;;;;;;5049483;28;20089;-65
2021/11/21 00:52:58;;;;;;;42.63;29.38;;;8.80;99.90;;;;;;5042315;28;20033;-65
2021/11/21 00:55:34;;;;;;;39.38;28.35;;;8.80;99.90;;;;;;5054095;28;20541;-64
2021/11/21 00:58:00;;;;;;;42.83;29.80;;;8.70;99.90;;;;;;5053778;28;20037;-64
2021/11/21 01:00:25;;;;;;;40.53;28.55;;;8.70;99.90;;;;;;5053856;28;20056;-65
2021/11/21 01:02:51;;;;;;;43.45;28.85;;;8.70;99.90;;;;;;5053521;28;20099;-65
2021/11/21 01:05:17;;;;;;;40.45;28.52;;;8.70;99.90;;;;;;5054553;28;20153;-65
2021/11/21 01:07:43;;;;;;;41.47;28.52;;;8.80;99.90;;;;;;5052969;28;20037;-64
2021/11/21 01:10:15;;;;;;;38.65;28.00;;;8.90;99.90;;;;;;5053866;28;20408;-65
2021/11/21 01:12:41;;;;;;;42.38;29.85;;;8.90;99.90;;;;;;5035091;28;20048;-64
2021/11/21 01:15:13;;;;;;;37.83;27.27;;;8.90;99.90;;;;;;5033723;28;20025;-65
2021/11/21 01:17:38;;;;;;;38.65;28.20;;;8.80;99.90;;;;;;5032550;28;20051;-64
2021/11/21 01:20:06;;;;;;;42.08;29.08;;;8.80;99.90;;;;;;5052515;28;20036;-64
2021/11/21 01:22:32;;;;;;;40.35;28.23;;;8.70;99.90;;;;;;5058046;28;20120;-66
2021/11/21 01:24:59;;;;;;;40.83;27.83;;;8.70;99.90;;;;;;5053844;28;20036;-65
2021/11/21 01:27:25;;;;;;;38.03;26.63;;;8.80;99.90;;;;;;5052026;28;20051;-65
2021/11/21 01:29:51;;;;;;;41.45;27.73;;;8.70;99.90;;;;;;5052988;28;20427;-63
2021/11/21 01:32:18;;;;;;;41.47;27.90;;;8.70;99.90;;;;;;5045653;28;20033;-63
2021/11/21 01:34:44;;;;;;;43.00;28.67;;;8.70;99.90;;;;;;5044744;28;20765;-65
2021/11/21 01:37:10;;;;;;;40.17;27.73;;;8.70;99.90;;;;;;5042694;28;20156;-64
2021/11/21 01:39:35;;;;;;;41.22;29.25;;;8.70;99.90;;;;;;5042531;28;20075;-65
2021/11/21 01:42:01;;;;;;;41.17;27.80;;;8.70;99.90;;;;;;5049457;28;20029;-63
2021/11/21 01:44:27;;;;;;;39.78;28.40;;;8.60;99.90;;;;;;5049487;28;20103;-63
2021/11/21 01:46:53;;;;;;;40.95;28.48;;;8.70;99.90;;;;;;5052089;28;20056;-63
2021/11/21 01:49:19;;;;;;;38.35;27.15;;;8.60;99.90;;;;;;5048678;28;20489;-63
2021/11/21 01:51:45;;;;;;;40.80;28.70;;;8.70;99.90;;;;;;5050136;28;20017;-65
2021/11/21 01:54:13;;;;;;;41.70;28.63;;;8.70;99.90;;;;;;5046713;28;20063;-65
2021/11/21 01:56:40;;;;;;;40.92;29.27;;;8.60;99.90;;;;;;5051685;28;20099;-64
2021/11/21 01:59:06;;;;;;;40.33;28.27;;;8.70;99.90;;;;;;5052886;28;20362;-64
2021/11/21 02:01:32;;;;;;;40.65;29.75;;;8.70;99.90;;;;;;5050214;28;20028;-64
2021/11/21 02:03:59;;;;;;;38.10;27.40;;;8.70;99.90;;;;;;5048795;28;20108;-64
2021/11/21 02:06:25;;;;;;;42.67;29.08;;;8.70;99.90;;;;;;5045146;28;20094;-64
2021/11/21 02:08:58;;;;;;;45.58;29.45;;;8.70;99.90;;;;;;5050953;28;20041;-64
2021/11/21 02:11:27;;;;;;;44.42;27.95;;;8.70;99.90;;;;;;5064362;28;20407;-65
2021/11/21 02:13:54;;;;;;;41.88;28.75;;;8.70;99.90;;;;;;5045177;28;20033;-64
2021/11/21 02:16:22;;;;;;;38.47;27.63;;;8.80;99.90;;;;;;5048875;28;20029;-64
2021/11/21 02:18:49;;;;;;;42.70;29.80;;;8.90;99.90;;;;;;5044316;28;20384;-64
2021/11/21 02:21:17;;;;;;;41.47;28.80;;;8.90;99.90;;;;;;5051736;28;20074;-64
2021/11/21 02:23:43;;;;;;;40.33;28.42;;;8.80;99.90;;;;;;5046597;28;20519;-64
2021/11/21 02:26:10;;;;;;;45.33;29.42;;;8.80;99.90;;;;;;5047295;28;20041;-66
2021/11/21 02:28:39;;;;;;;41.40;29.23;;;8.70;99.90;;;;;;5049164;28;20033;-64
2021/11/21 02:31:07;;;;;;;41.38;27.90;;;8.60;99.90;;;;;;5044862;28;20098;-65
2021/11/21 02:33:33;;;;;;;43.88;29.02;;;8.70;99.90;;;;;;5050601;28;20025;-64
2021/11/21 02:36:02;;;;;;;40.42;27.45;;;8.80;99.90;;;;;;5053297;28;20040;-64
2021/11/21 02:38:29;;;;;;;37.58;26.38;;;8.80;99.90;;;;;;5049398;28;20086;-64
2021/11/21 02:40:57;;;;;;;38.05;27.25;;;8.90;99.90;;;;;;5045629;28;20070;-65
2021/11/21 02:43:23;;;;;;;39.30;27.17;;;8.90;99.90;;;;;;5050121;28;20031;-63
2021/11/21 02:45:52;;;;;;;41.08;28.20;;;8.90;99.90;;;;;;5049369;28;20022;-64
2021/11/21 02:48:19;;;;;;;40.85;28.05;;;8.90;99.90;;;;;;5055810;28;20036;-64
2021/11/21 02:50:45;;;;;;;40.72;28.48;;;8.90;99.90;;;;;;5049758;28;20029;-64
2021/11/21 02:53:13;;;;;;;39.97;27.67;;;8.90;99.90;;;;;;5052086;28;20025;-65
2021/11/21 02:55:39;;;;;;;39.22;27.58;;;8.90;99.90;;;;;;5053685;28;20036;-63
2021/11/21 02:58:05;;;;;;;40.80;28.67;;;9.00;99.90;;;;;;5050751;28;20041;-64
2021/11/21 03:00:33;;;;;;;41.85;29.02;;;8.80;99.90;;;;;;5044749;28;20036;-64
2021/11/21 03:02:59;;;;;;;42.00;28.60;;;8.80;99.90;;;;;;5052878;28;20033;-64
2021/11/21 03:05:25;;;;;;;46.13;29.73;;;8.90;99.90;;;;;;5036063;28;20033;-64
2021/11/21 03:07:51;;;;;;;41.80;28.98;;;8.90;99.90;;;;;;5036118;28;20559;-65
2021/11/21 03:10:19;;;;;;;39.63;28.90;;;8.90;99.90;;;;;;5036551;28;20041;-65
2021/11/21 03:12:54;;;;;;;39.70;28.33;;;8.80;99.90;;;;;;5035274;28;20063;-64
2021/11/21 03:15:20;;;;;;;40.65;28.83;;;8.70;99.90;;;;;;5034047;28;20045;-64
2021/11/21 03:17:47;;;;;;;41.75;28.55;;;8.80;99.90;;;;;;5033794;28;20048;-64
2021/11/21 03:20:15;;;;;;;39.85;27.63;;;8.90;99.90;;;;;;5054349;28;20104;-65
2021/11/21 03:22:42;;;;;;;39.28;27.58;;;8.80;99.90;;;;;;5055193;28;20595;-64
2021/11/21 03:25:12;;;;;;;43.35;29.90;;;8.80;99.90;;;;;;5055324;28;20040;-65
2021/11/21 03:27:38;;;;;;;41.85;29.42;;;8.80;99.90;;;;;;5054887;28;20029;-64
2021/11/21 03:30:07;;;;;;;42.22;29.23;;;8.70;99.90;;;;;;5055131;28;20068;-65
2021/11/21 03:32:33;;;;;;;39.30;28.15;;;8.70;99.90;;;;;;5055948;28;20504;-64
2021/11/21 03:34:58;;;;;;;39.03;27.73;;;8.80;99.90;;;;;;5055896;28;20047;-64
2021/11/21 03:37:25;;;;;;;43.88;28.73;;;8.70;99.90;;;;;;5055745;28;20052;-64
2021/11/21 03:39:51;;;;;;;42.65;29.85;;;8.60;99.90;;;;;;5055112;28;20033;-63
2021/11/21 03:42:17;;;;;;;39.78;28.88;;;8.70;99.90;;;;;;5054115;28;20366;-65
2021/11/21 03:44:42;;;;;;;42.20;29.40;;;8.80;99.90;;;;;;5054130;28;20068;-64
2021/11/21 03:47:08;;;;;;;42.47;29.20;;;8.80;99.90;;;;;;5055144;28;20060;-65
2021/11/21 03:49:34;;;;;;;41.92;29.42;;;8.80;99.90;;;;;;5055109;28;20041;-63
2021/11/21 03:52:01;;;;;;;40.88;27.83;;;8.80;99.90;;;;;;5055570;28;20037;-64
2021/11/21 03:54:26;;;;;;;41.17;28.73;;;8.70;99.90;;;;;;5055232;28;20036;-64
2021/11/21 03:56:53;;;;;;;40.53;27.38;;;8.70;99.90;;;;;;5054639;28;20029;-64
2021/11/21 03:59:19;;;;;;;39.90;27.80;;;8.80;99.90;;;;;;5055207;28;20068;-65
2021/11/21 04:01:46;;;;;;;39.33;27.45;;;8.70;99.90;;;;;;5054856;28;20036;-64
2021/11/21 04:04:12;;;;;;;40.97;28.73;;;8.70;99.90;;;;;;5055033;28;20511;-64
2021/11/21 04:06:39;;;;;;;38.45;27.30;;;8.70;99.90;;;;;;5055340;28;20028;-64
2021/11/21 04:09:06;;;;;;;38.90;27.45;;;8.80;99.90;;;;;;5054950;28;20544;-65
2021/11/21 04:11:31;;;;;;;39.72;27.20;;;8.80;99.90;;;;;;5054383;28;20037;-65
2021/11/21 04:13:58;;;;;;;37.70;26.23;;;8.80;99.90;;;;;;5054842;28;20033;-64
2021/11/21 04:16:24;;;;;;;40.63;27.52;;;8.80;99.90;;;;;;5054834;28;20052;-62
2021/11/21 04:18:50;;;;;;;38.13;27.52;;;8.80;99.90;;;;;;5053662;28;20078;-65
2021/11/21 04:21:16;;;;;;;36.70;27.13;;;8.90;99.90;;;;;;5053988;28;20029;-64
2021/11/21 04:23:42;;;;;;;38.55;26.85;;;8.90;99.90;;;;;;5052968;28;20036;-64
2021/11/21 04:26:08;;;;;;;40.25;27.58;;;8.80;99.90;;;;;;5054790;28;20079;-65
2021/11/21 04:28:34;;;;;;;38.45;26.65;;;8.80;99.90;;;;;;5053479;28;20041;-65
2021/11/21 04:30:59;;;;;;;38.20;26.77;;;8.80;99.90;;;;;;5052879;28;20044;-65
2021/11/21 04:33:25;;;;;;;41.50;28.20;;;8.80;99.90;;;;;;5054042;28;20036;-63
2021/11/21 04:35:51;;;;;;;34.30;24.17;;;8.80;99.90;;;;;;5051196;28;20040;-65
2021/11/21 04:38:19;;;;;;;40.92;27.23;;;8.80;99.90;;;;;;5054108;28;20036;-64
2021/11/21 04:40:47;;;;;;;39.58;26.58;;;8.80;99.90;;;;;;5052049;28;20034;-64
2021/11/21 04:43:12;;;;;;;36.55;26.00;;;8.80;99.90;;;;;;5054119;28;20120;-64
2021/11/21 04:45:38;;;;;;;37.15;25.35;;;8.70;99.90;;;;;;5053948;28;20732;-64
2021/11/21 04:48:05;;;;;;;32.83;23.90;;;8.80;99.90;;;;;;5054119;28;20040;-65
2021/11/21 04:50:31;;;;;;;38.15;25.58;;;8.80;99.90;;;;;;5054523;28;20132;-64
2021/11/21 04:52:56;;;;;;;36.67;25.65;;;8.80;99.90;;;;;;5044696;28;20565;-63
2021/11/21 04:55:22;;;;;;;33.63;23.67;;;8.70;99.90;;;;;;5035235;28;20041;-63
2021/11/21 04:57:48;;;;;;;38.67;24.30;;;8.60;99.90;;;;;;5050236;28;20027;-64
2021/11/21 05:00:16;;;;;;;35.65;24.85;;;8.70;99.90;;;;;;5054700;28;20049;-63
2021/11/21 05:02:44;;;;;;;30.35;21.48;;;8.70;99.90;;;;;;5055439;28;20043;-65
2021/11/21 05:05:09;;;;;;;30.08;21.27;;;8.70;99.90;;;;;;5055198;28;20452;-64
2021/11/21 05:07:35;;;;;;;34.22;23.75;;;8.70;99.90;;;;;;5055244;28;20029;-64
2021/11/21 05:10:03;;;;;;;33.58;22.65;;;8.60;99.90;;;;;;5054361;28;20033;-64
2021/11/21 05:12:29;;;;;;;37.47;24.73;;;8.60;99.90;;;;;;5052839;28;20064;-66
2021/11/21 05:14:56;;;;;;;33.97;24.17;;;8.60;99.90;;;;;;5053217;28;20073;-64
2021/11/21 05:17:21;;;;;;;37.15;24.73;;;8.70;99.90;;;;;;5053357;28;20041;-63
2021/11/21 05:19:47;;;;;;;34.88;24.17;;;8.70;99.90;;;;;;5052448;28;20040;-65
2021/11/21 05:22:12;;;;;;;32.60;23.42;;;8.80;99.90;;;;;;5053862;28;20025;-66
2021/11/21 05:24:38;;;;;;;34.60;24.30;;;8.80;99.90;;;;;;5053489;28;20045;-66
2021/11/21 05:27:04;;;;;;;31.77;22.67;;;8.80;99.90;;;;;;5052853;28;20044;-64
2021/11/21 05:29:30;;;;;;;38.75;24.65;;;8.70;99.90;;;;;;5053598;28;20040;-65
2021/11/21 05:31:55;;;;;;;33.58;22.73;;;8.70;99.90;;;;;;5054361;28;20033;-64
2021/11/21 05:34:21;;;;;;;36.03;23.85;;;8.70;99.90;;;;;;5054268;28;20052;-65
2021/11/21 05:36:47;;;;;;;32.40;22.98;;;8.80;99.90;;;;;;5055147;28;20052;-65
2021/11/21 05:39:13;;;;;;;36.70;22.98;;;8.70;99.90;;;;;;5054002;28;20028;-65
2021/11/21 05:41:39;;;;;;;38.97;25.20;;;8.70;99.90;;;;;;5054504;28;20036;-65
2021/11/21 05:44:05;;;;;;;34.40;24.35;;;8.70;99.90;;;;;;5054251;28;20065;-65
2021/11/21 05:46:31;;;;;;;35.47;23.92;;;8.60;99.90;;;;;;5052534;28;20041;-64
2021/11/21 05:48:57;;;;;;;34.58;23.42;;;8.60;99.90;;;;;;5053540;28;20086;-66
2021/11/21 05:51:23;;;;;;;34.75;23.35;;;8.60;99.90;;;;;;5053716;28;20051;-63
2021/11/21 05:53:48;;;;;;;38.03;24.40;;;8.60;99.90;;;;;;5053107;28;20040;-63
2021/11/21 05:56:14;;;;;;;35.13;23.67;;;8.60;99.90;;;;;;5052644;28;20029;-64
2021/11/21 05:58:39;;;;;;;33.15;24.35;;;8.60;99.90;;;;;;5053822;28;20029;-64
2021/11/21 06:01:05;;;;;;;37.58;24.23;;;8.70;99.90;;;;;;5052458;28;20034;-68
2021/11/21 06:03:31;;;;;;;41.75;27.13;;;8.60;99.90;;;;;;5053826;28;20045;-64
2021/11/21 06:05:57;;;;;;;37.47;26.40;;;8.60;99.90;;;;;;5052877;28;20033;-63
2021/11/21 06:08:22;;;;;;;38.60;26.85;;;8.60;99.90;;;;;;5053019;28;20400;-65
2021/11/21 06:10:48;;;;;;;38.97;26.88;;;8.60;99.90;;;;;;5052834;28;20045;-64
2021/11/21 06:13:13;;;;;;;42.63;27.58;;;8.60;99.90;;;;;;5053375;28;20029;-63
2021/11/21 06:15:39;;;;;;;38.97;26.08;;;8.70;99.90;;;;;;5051493;28;20044;-64
2021/11/21 06:18:05;;;;;;;39.53;26.83;;;8.60;99.90;;;;;;5053656;28;20055;-64
2021/11/21 06:20:31;;;;;;;42.50;28.58;;;8.60;99.90;;;;;;5052615;28;20500;-64
2021/11/21 06:22:57;;;;;;;41.03;27.70;;;8.70;99.90;;;;;;5052111;28;20029;-63
2021/11/21 06:25:23;;;;;;;43.28;28.77;;;8.70;99.90;;;;;;5053474;28;20488;-63
2021/11/21 06:27:49;;;;;;;42.50;28.27;;;8.60;99.90;;;;;;5056342;28;20025;-66
2021/11/21 06:30:14;;;;;;;42.60;27.15;;;8.60;99.90;;;;;;5056060;28;20111;-65
2021/11/21 06:32:40;;;;;;;41.45;28.67;;;8.50;99.90;;;;;;5049437;28;20098;-64
2021/11/21 06:35:07;;;;;;;38.75;26.45;;;8.50;99.90;;;;;;5035233;28;20087;-63
2021/11/21 06:37:33;;;;;;;40.47;27.77;;;8.50;99.90;;;;;;5037167;28;20095;-63
2021/11/21 06:39:59;;;;;;;36.40;26.77;;;8.50;99.90;;;;;;5035180;28;20036;-64
2021/11/21 06:42:25;;;;;;;41.97;27.45;;;8.50;99.90;;;;;;5036821;28;20025;-65
2021/11/21 06:44:51;;;;;;;40.15;26.98;;;8.40;99.90;;;;;;5037088;28;20034;-65
2021/11/21 06:47:18;;;;;;;40.10;26.95;;;8.30;99.90;;;;;;5036885;28;20093;-64
2021/11/21 06:49:45;;;;;;;39.95;27.73;;;8.30;99.90;;;;;;5036030;28;20030;-64
2021/11/21 06:52:10;;;;;;;43.17;27.80;;;8.30;99.90;;;;;;5038948;28;20393;-64
2021/11/21 06:54:36;;;;;;;42.22;28.60;;;8.40;99.90;;;;;;5054625;28;20040;-62
2021/11/21 06:57:02;;;;;;;43.88;29.52;;;8.30;99.90;;;;;;5054358;28;20393;-65
2021/11/21 06:59:28;;;;;;;47.65;31.23;;;8.30;99.90;;;;;;5053957;28;20060;-64
2021/11/21 07:01:54;;;;;;;45.97;29.75;;;8.30;99.90;;;;;;5039815;28;20039;-64
2021/11/21 07:04:19;;;;;;;42.42;27.92;;;8.30;99.90;;;;;;5034211;28;20091;-65
2021/11/21 07:06:48;;;;;;;41.78;28.05;;;8.40;99.90;;;;;;5050972;28;20093;-64
2021/11/21 07:09:16;;;;;;;42.70;30.33;;;8.40;99.90;;;;;;5051642;28;20040;-64
2021/11/21 07:11:44;;;;;;;44.67;28.60;;;8.40;99.90;;;;;;5053807;28;20503;-65
2021/11/21 07:14:11;;;;;;;43.47;28.80;;;8.30;99.90;;;;;;5053554;28;20025;-66
2021/11/21 07:16:42;;;;;;;44.15;29.92;;;8.30;99.90;;;;;;5053853;28;20040;-64
2021/11/21 07:19:08;;;;;;;42.35;27.75;;;8.30;99.90;;;;;;5053248;28;20033;-65
2021/11/21 07:21:34;;;;;;;43.88;28.20;;;8.30;99.90;;;;;;5053652;28;20040;-67
2021/11/21 07:24:00;;;;;;;45.20;28.55;;;8.30;99.90;;;;;;5053707;28;20385;-64
2021/11/21 07:26:26;;;;;;;44.95;28.85;;;8.30;99.90;;;;;;5053579;28;20190;-63
2021/11/21 07:28:52;;;;;;;44.65;29.27;;;8.30;99.90;;;;;;5053470;28;20036;-64
2021/11/21 07:31:18;;;;;;;42.45;26.60;;;8.30;99.90;;;;;;5052314;28;20028;-67
2021/11/21 07:33:44;;;;;;;41.53;27.67;;;8.40;99.90;;;;;;5053105;28;20029;-63
2021/11/21 07:36:10;;;;;;;42.47;27.85;;;8.40;99.90;;;;;;5053420;28;20044;-64
2021/11/21 07:38:35;;;;;;;40.67;27.23;;;8.30;99.90;;;;;;5052672;28;20626;-65
2021/11/21 07:41:02;;;;;;;42.95;29.25;;;8.30;99.90;;;;;;5053117;28;20033;-64
2021/11/21 07:43:28;;;;;;;42.55;28.02;;;8.30;99.90;;;;;;5053213;28;20129;-64
2021/11/21 07:45:54;;;;;;;38.28;25.92;;;8.30;99.90;;;;;;5049087;28;20068;-63
2021/11/21 07:48:20;;;;;;;39.38;26.70;;;8.30;99.90;;;;;;5052807;28;20479;-66
2021/11/21 07:50:46;;;;;;;42.90;27.95;;;8.40;99.90;;;;;;5053186;28;20130;-66
2021/11/21 07:53:12;;;;;;;41.42;28.13;;;8.40;99.90;;;;;;5041370;28;20037;-65
2021/11/21 07:55:37;;;;;;;37.90;24.88;;;8.30;99.90;;;;;;5040059;28;20045;-64
2021/11/21 07:58:03;;;;;;;38.05;26.77;;;8.30;99.90;;;;;;5052907;28;20052;-64
2021/11/21 08:00:29;;;;;;;40.88;25.92;;;8.30;99.90;;;;;;5050998;28;20036;-64
2021/11/21 08:02:57;;;;;;;42.78;27.48;;;8.30;99.90;;;;;;5039949;28;20025;-64
2021/11/21 08:05:23;;;;;;;39.72;26.77;;;8.30;99.90;;;;;;5051203;28;20021;-65
2021/11/21 08:07:49;;;;;;;41.67;27.50;;;8.30;99.90;;;;;;5052670;28;20033;-64
2021/11/21 08:10:14;;;;;;;45.55;28.05;;;8.30;99.90;;;;;;5052431;28;20044;-64
2021/11/21 08:12:40;;;;;;;38.90;26.45;;;8.40;99.90;;;;;;5052616;28;20033;-63
2021/11/21 08:15:07;;;;;;;43.13;28.02;;;8.40;99.90;;;;;;5041034;28;20025;-64
2021/11/21 08:17:32;;;;;;;42.08;26.85;;;8.40;99.90;;;;;;5041581;28;20052;-63
2021/11/21 08:19:58;;;;;;;42.22;28.48;;;8.50;99.90;;;;;;5043447;28;20477;-64
2021/11/21 08:22:24;;;;;;;38.28;26.20;;;8.50;99.90;;;;;;5043609;28;20113;-65
2021/11/21 08:24:51;;;;;;;42.58;28.13;;;8.40;99.90;;;;;;5035564;28;20044;-64
2021/11/21 08:27:17;;;;;;;45.13;29.95;;;8.40;99.90;;;;;;5032622;28;20082;-66
2021/11/21 08:29:42;;;;;;;40.30;28.30;;;8.50;99.90;;;;;;5031879;28;20030;-64
2021/11/21 08:32:09;;;;;;;39.55;26.60;;;8.60;99.90;;;;;;5032312;28;20042;-63
2021/11/21 08:34:35;;;;;;;47.05;28.25;;;8.60;99.90;;;;;;5037993;28;20606;-64
2021/11/21 08:37:00;;;;;;;42.83;28.67;;;8.60;99.90;;;;;;5045266;28;20115;-65
2021/11/21 08:39:26;;;;;;;41.67;28.38;;;8.50;99.90;;;;;;5033943;28;20035;-66
2021/11/21 08:41:54;;;;;;;39.95;27.05;;;8.60;99.90;;;;;;5041751;28;20071;-66
2021/11/21 08:44:21;;;;;;;38.25;26.52;;;8.60;99.90;;;;;;5051127;28;20029;-65
2021/11/21 08:46:47;;;;;;;39.75;26.75;;;8.60;99.90;;;;;;5047065;28;20044;-64
2021/11/21 08:49:13;;;;;;;40.45;25.95;;;8.60;99.90;;;;;;5041597;28;20029;-65
2021/11/21 08:51:40;;;;;;;41.35;25.85;;;8.60;99.90;;;;;;5052100;28;20035;-66
2021/11/21 08:54:07;;;;;;;41.35;26.35;;;8.60;99.90;;;;;;5043881;28;20029;-65
2021/11/21 08:56:33;;;;;;;40.42;26.38;;;8.60;99.90;;;;;;5038210;28;20037;-65
2021/11/21 08:58:59;;;;;;;40.35;26.25;;;8.70;99.90;;;;;;5047671;28;20029;-63
2021/11/21 09:01:25;;;;;;;39.70;25.80;;;8.70;99.90;;;;;;5042391;28;20038;-65
2021/11/21 09:03:50;;;;;;;41.60;27.45;;;8.70;99.90;;;;;;5041908;28;20405;-65
2021/11/21 09:06:16;;;;;;;38.60;25.75;;;8.70;99.90;;;;;;5042839;28;20393;-65
2021/11/21 09:08:42;;;;;;;38.22;24.63;;;8.70;99.90;;;;;;5042200;28;20048;-65
2021/11/21 09:11:08;;;;;;;38.40;24.20;;;8.70;99.90;;;;;;5051128;28;20438;-64
2021/11/21 09:13:33;;;;;;;37.75;25.17;;;8.70;99.90;;;;;;5051184;28;20029;-63
2021/11/21 09:16:00;;;;;;;36.70;24.80;;;8.70;99.90;;;;;;5049784;28;20033;-63
2021/11/21 09:18:26;;;;;;;38.45;25.60;;;8.80;99.90;;;;;;5046753;28;20477;-64
2021/11/21 09:20:54;;;;;;;35.63;23.35;;;8.80;99.90;;;;;;5047103;28;20510;-66
2021/11/21 09:23:21;;;;;;;36.30;24.65;;;8.80;99.90;;;;;;5051591;28;20118;-65
2021/11/21 09:25:47;;;;;;;35.80;24.92;;;8.80;99.90;;;;;;5050382;28;20040;-64
2021/11/21 09:28:13;;;;;;;36.85;26.38;;;8.90;99.90;;;;;;5052993;28;20040;-64
2021/11/21 09:30:38;;;;;;;35.20;23.73;;;8.80;99.90;;;;;;5053051;28;20044;-64
2021/11/21 09:33:05;;;;;;;35.08;23.50;;;8.80;99.90;;;;;;5051464;28;20032;-64
2021/11/21 09:35:32;;;;;;;33.92;22.67;;;8.80;99.90;;;;;;5052755;28;20029;-65
2021/11/21 09:37:58;;;;;;;32.95;22.65;;;8.80;99.90;;;;;;5053079;28;20036;-65
2021/11/21 09:40:24;;;;;;;31.13;22.88;;;8.90;99.90;;;;;;5052495;28;20091;-64
2021/11/21 09:42:50;;;;;;;35.90;23.40;;;8.90;99.90;;;;;;5037406;28;20029;-63
2021/11/21 09:45:17;;;;;;;32.85;22.83;;;9.00;99.90;;;;;;5051489;28;20072;-65
2021/11/21 09:48:20;;;;;;;;;;;;;;;;;;;;;
2021/11/21 09:50:46;;;;;;;35.53;23.77;;;9.10;99.90;;;;;;5038780;28;20087;-64
2021/11/21 09:53:14;;;;;;;33.45;23.23;;;8.90;99.90;;;;;;5040742;28;20037;-64
2021/11/21 09:55:41;;;;;;;34.90;24.38;;;9.00;99.90;;;;;;5041038;28;20025;-65
2021/11/21 09:58:07;;;;;;;34.40;22.38;;;9.00;99.90;;;;;;5038687;28;20401;-64
2021/11/21 10:00:34;;;;;;;37.53;25.33;;;8.90;99.90;;;;;;5036901;28;20056;-65
2021/11/21 10:03:10;;;;;;;34.08;23.85;;;9.00;99.90;;;;;;5058376;28;20032;-67
2021/11/21 10:05:46;;;;;;;34.63;24.02;;;9.00;99.90;;;;;;5058762;28;20426;-65
2021/11/21 10:08:13;;;;;;;35.08;23.85;;;9.10;99.90;;;;;;5056923;28;20127;-66
2021/11/21 10:10:43;;;;;;;38.92;24.23;;;9.20;99.90;;;;;;5053361;28;20036;-69
2021/11/21 10:13:27;;;;;;;33.45;22.98;;;9.20;99.90;;;;;;5055668;28;20045;-65
2021/11/21 10:15:54;;;;;;;34.70;22.42;;;9.00;99.90;;;;;;5047972;28;20108;-64
2021/11/21 10:18:22;;;;;;;35.10;23.48;;;8.90;99.90;;;;;;5047826;28;20052;-66
2021/11/21 10:20:49;;;;;;;35.53;23.58;;;8.90;99.90;;;;;;5044163;28;20032;-64
2021/11/21 10:23:15;;;;;;;37.78;24.25;;;8.80;99.90;;;;;;5045505;28;20033;-66
2021/11/21 10:25:48;;;;;;;35.40;23.45;;;9.00;99.90;;;;;;5045815;28;20052;-65
2021/11/21 10:28:33;;;;;;;35.95;24.52;;;9.00;99.90;;;;;;5046376;28;20037;-66
2021/11/21 10:31:10;;;;;;;36.63;23.83;;;8.90;99.90;;;;;;5043525;28;20033;-64
2021/11/21 10:33:59;;;;;;;36.05;24.55;;;8.90;99.90;;;;;;5044754;28;20034;-65
2021/11/21 10:36:32;;;;;;;37.92;25.20;;;8.80;99.90;;;;;;5043362;28;20052;-64
2021/11/21 10:39:01;;;;;;;39.08;26.23;;;8.60;99.90;;;;;;5045257;28;20020;-64
2021/11/21 10:41:30;;;;;;;39.95;26.17;;;8.50;99.90;;;;;;5045072;28;20025;-64
2021/11/21 10:43:58;;;;;;;42.25;26.58;;;8.40;99.90;;;;;;5054547;28;20033;-65
2021/11/21 10:46:31;;;;;;;40.22;26.08;;;8.40;99.90;;;;;;5035973;28;20488;-64
2021/11/21 10:49:15;;;;;;;40.92;25.98;;;8.40;99.90;;;;;;5044523;28;20808;-63
2021/11/21 10:51:42;;;;;;;38.30;25.17;;;8.30;99.90;;;;;;5050256;28;20039;-64
2021/11/21 10:54:21;;;;;;;40.25;25.90;;;8.30;99.90;;;;;;5042679;28;20065;-64
2021/11/21 10:56:49;;;;;;;41.92;25.67;;;8.30;99.90;;;;;;5041628;28;20372;-65
2021/11/21 10:59:15;;;;;;;41.15;25.13;;;8.30;99.90;;;;;;5046423;28;20032;-66
2021/11/21 11:01:40;;;;;;;43.42;25.25;;;8.30;99.90;;;;;;5044757;28;20409;-65
2021/11/21 11:04:11;;;;;;;41.35;25.23;;;8.30;99.90;;;;;;5040134;28;20090;-65
2021/11/21 11:06:39;;;;;;;41.03;24.75;;;8.30;99.90;;;;;;5043758;28;20045;-65
2021/11/21 11:09:16;;;;;;;38.92;26.02;;;8.30;99.90;;;;;;5040793;28;20039;-64
2021/11/21 11:11:42;;;;;;;46.30;27.00;;;8.40;99.90;;;;;;5043267;28;20033;-64
2021/11/21 11:14:08;;;;;;;42.90;26.65;;;8.30;99.90;;;;;;5041566;28;20386;-66
2021/11/21 11:16:33;;;;;;;41.72;26.17;;;8.30;99.90;;;;;;5050085;28;20033;-65
2021/11/21 11:19:02;;;;;;;41.25;27.23;;;8.30;99.90;;;;;;5033253;28;20044;-65
2021/11/21 11:21:28;;;;;;;44.28;28.85;;;8.30;99.90;;;;;;5047681;28;20037;-65
2021/11/21 11:23:54;;;;;;;44.42;27.52;;;8.30;99.90;;;;;;5045482;28;20029;-65
2021/11/21 11:26:23;;;;;;;48.78;29.05;;;8.20;99.90;;;;;;5043389;28;20025;-65
2021/11/21 11:28:56;;;;;;;46.13;27.15;;;8.00;99.90;;;;;;5043987;28;20034;-66
2021/11/21 11:31:23;;;;;;;45.88;27.70;;;8.10;99.90;;;;;;5043770;28;20025;-67
2021/11/21 11:33:51;;;;;;;41.15;25.42;;;8.10;99.90;;;;;;5044522;28;20033;-65
2021/11/21 11:36:27;;;;;;;39.70;26.02;;;8.20;99.90;;;;;;5043884;28;20052;-65
2021/11/21 11:39:13;;;;;;;41.45;25.98;;;8.20;99.90;;;;;;5050408;28;20429;-63
2021/11/21 11:41:39;;;;;;;44.63;27.90;;;8.30;99.90;;;;;;5045120;28;20079;-68
2021/11/21 11:44:06;;;;;;;41.20;25.52;;;8.30;99.90;;;;;;5043469;28;20033;-66
2021/11/21 11:46:34;;;;;;;45.33;25.75;;;8.30;99.90;;;;;;5053562;28;20400;-66
2021/11/21 11:49:08;;;;;;;42.03;26.15;;;8.40;99.90;;;;;;5043641;28;20381;-66
2021/11/21 11:51:34;;;;;;;41.78;26.05;;;8.30;99.90;;;;;;5045702;28;20045;-66
2021/11/21 11:54:12;;;;;;;41.15;25.40;;;8.30;99.90;;;;;;5047960;28;20041;-63
2021/11/21 11:57:09;;;;;;;37.80;23.27;;;8.40;99.90;;;;;;5035849;28;20501;-65
2021/11/21 11:59:39;;;;;;;41.83;25.60;;;8.50;99.90;;;;;;5042469;28;20513;-66
2021/11/21 12:02:36;;;;;;;38.00;24.52;;;8.50;99.90;;;;;;5041657;28;20100;-66
2021/11/21 12:05:05;;;;;;;36.85;26.08;;;8.50;99.90;;;;;;5054353;28;20033;-65
2021/11/21 12:07:34;;;;;;;38.33;26.00;;;8.40;99.90;;;;;;5054450;28;20064;-65
2021/11/21 12:10:19;;;;;;;41.88;24.83;;;8.30;99.90;;;;;;5052298;28;20131;-66
2021/11/21 12:12:50;;;;;;;;;;;8.30;99.90;;;;;;5054818;28;20033;-65
2021/11/21 12:15:47;;;;;;;37.22;23.88;;;8.40;99.90;;;;;;5043583;28;19960;-66
2021/11/21 12:18:13;;;;;;;39.10;25.63;;;8.40;99.90;;;;;;5035109;28;20087;-66
2021/11/21 12:20:53;;;;;;;39.20;24.73;;;8.40;99.90;;;;;;5047168;28;20121;-66
2021/11/21 12:23:48;;;;;;;39.30;23.40;;;8.40;99.90;;;;;;5034012;28;20478;-65
2021/11/21 12:26:24;;;;;;;37.42;21.92;;;8.50;99.90;;;;;;5021237;28;20041;-64
2021/11/21 12:29:09;;;;;;;35.45;23.08;;;8.50;99.90;;;;;;5033807;28;20037;-65
2021/11/21 12:31:41;;;;;;;39.80;23.88;;;8.60;99.90;;;;;;5037779;28;20033;-65
2021/11/21 12:34:35;;;;;;;39.97;24.55;;;8.50;99.90;;;;;;5052847;28;20040;-66
2021/11/21 12:37:14;;;;;;;37.83;24.15;;;8.50;99.90;;;;;;5045165;28;20022;-65
2021/11/21 12:39:47;;;;;;;38.22;23.90;;;8.60;99.90;;;;;;5051306;28;20021;-65
2021/11/21 12:42:16;;;;;;;35.30;22.90;;;8.50;99.90;;;;;;5037347;28;20060;-64